sensor_id;sensor_type;location;lat;lon;timestamp;pressure;altitude;pressure_sealevel;temperature;humidity
29239;BME280;16267;48.194;11.546;2023-04-09T00:00:38;96577.66;;;6.24;82.65
29239;BME280;16267;48.194;11.546;2023-04-09T00:03:04;96581.81;;;6.21;83.05
29239;BME280;16267;48.194;11.546;2023-04-09T00:05:30;96579.47;;;6.20;84.46
29239;BME280;16267;48.194;11.546;2023-04-09T00:07:57;96581.38;;;6.19;85.17
29239;BME280;16267;48.194;11.546;2023-04-09T00:10:23;96580.63;;;6.19;84.87
29239;BME280;16267;48.194;11.546;2023-04-09T00:12:49;96583.28;;;6.19;84.99
29239;BME280;16267;48.194;11.546;2023-04-09T00:15:15;96579.84;;;6.18;84.08
29239;BME280;16267;48.194;11.546;2023-04-09T00:17:41;96580.97;;;6.17;83.88
29239;BME280;16267;48.194;11.546;2023-04-09T00:20:08;96576.38;;;6.18;83.03
29239;BME280;16267;48.194;11.546;2023-04-09T00:22:35;96574.53;;;6.18;83.09
29239;BME280;16267;48.194;11.546;2023-04-09T00:25:01;96573.38;;;6.19;82.51
29239;BME280;16267;48.194;11.546;2023-04-09T00:27:27;96580.25;;;6.20;82.59
29239;BME280;16267;48.194;11.546;2023-04-09T00:30:01;96574.91;;;6.20;81.93
29239;BME280;16267;48.194;11.546;2023-04-09T00:32:27;96566.91;;;6.20;82.33
29239;BME280;16267;48.194;11.546;2023-04-09T00:34:52;96565.81;;;6.21;81.85
29239;BME280;16267;48.194;11.546;2023-04-09T00:37:18;96570.00;;;6.22;81.99
29239;BME280;16267;48.194;11.546;2023-04-09T00:39:44;96569.25;;;6.22;81.74
29239;BME280;16267;48.194;11.546;2023-04-09T00:42:11;96563.91;;;6.22;82.06
29239;BME280;16267;48.194;11.546;2023-04-09T00:44:36;96575.34;;;6.22;82.03
29239;BME280;16267;48.194;11.546;2023-04-09T00:47:02;96571.53;;;6.23;82.07
29239;BME280;16267;48.194;11.546;2023-04-09T00:49:28;96564.31;;;6.24;81.79
29239;BME280;16267;48.194;11.546;2023-04-09T00:51:54;96565.44;;;6.23;82.70
29239;BME280;16267;48.194;11.546;2023-04-09T00:54:20;96573.44;;;6.23;83.33
29239;BME280;16267;48.194;11.546;2023-04-09T00:56:46;96565.81;;;6.21;83.62
29239;BME280;16267;48.194;11.546;2023-04-09T00:59:12;96567.72;;;6.21;83.48
29239;BME280;16267;48.194;11.546;2023-04-09T01:01:38;96570.38;;;6.21;82.93
29239;BME280;16267;48.194;11.546;2023-04-09T01:04:04;96569.59;;;6.20;82.84
29239;BME280;16267;48.194;11.546;2023-04-09T01:06:52;96566.16;;;6.20;82.51
29239;BME280;16267;48.194;11.546;2023-04-09T01:09:42;96565.03;;;6.21;82.65
29239;BME280;16267;48.194;11.546;2023-04-09T01:12:46;96568.81;;;6.20;83.14
29239;BME280;16267;48.194;11.546;2023-04-09T01:15:25;96557.72;;;6.18;83.49
29239;BME280;16267;48.194;11.546;2023-04-09T01:21:11;96564.19;;;6.17;83.09
29239;BME280;16267;48.194;11.546;2023-04-09T01:27:08;96568.75;;;6.16;83.86
29239;BME280;16267;48.194;11.546;2023-04-09T01:29:45;96558.44;;;6.15;83.81
29239;BME280;16267;48.194;11.546;2023-04-09T01:32:13;96571.00;;;6.14;84.85
29239;BME280;16267;48.194;11.546;2023-04-09T01:34:46;96563.38;;;6.13;84.62
29239;BME280;16267;48.194;11.546;2023-04-09T01:37:13;96564.50;;;6.12;84.97
29239;BME280;16267;48.194;11.546;2023-04-09T01:39:41;96570.97;;;6.11;84.76
29239;BME280;16267;48.194;11.546;2023-04-09T01:42:08;96565.63;;;6.11;84.86
29239;BME280;16267;48.194;11.546;2023-04-09T01:45:02;96571.31;;;6.09;84.46
29239;BME280;16267;48.194;11.546;2023-04-09T01:47:30;96569.78;;;6.08;85.07
29239;BME280;16267;48.194;11.546;2023-04-09T01:49:56;96574.69;;;6.06;85.63
29239;BME280;16267;48.194;11.546;2023-04-09T01:52:22;96574.69;;;6.06;85.75
29239;BME280;16267;48.194;11.546;2023-04-09T01:54:48;96574.69;;;6.06;85.12
29239;BME280;16267;48.194;11.546;2023-04-09T01:57:14;96557.16;;;6.05;84.96
29239;BME280;16267;48.194;11.546;2023-04-09T01:59:39;96572.03;;;6.06;84.56
29239;BME280;16267;48.194;11.546;2023-04-09T02:02:19;96573.91;;;6.06;83.96
29239;BME280;16267;48.194;11.546;2023-04-09T02:04:50;96572.78;;;6.07;83.79
29239;BME280;16267;48.194;11.546;2023-04-09T02:07:38;96566.69;;;6.06;83.26
29239;BME280;16267;48.194;11.546;2023-04-09T02:10:09;96572.03;;;6.06;83.01
29239;BME280;16267;48.194;11.546;2023-04-09T02:12:38;96567.44;;;6.07;83.51
29239;BME280;16267;48.194;11.546;2023-04-09T02:15:05;96564.03;;;6.06;83.90
29239;BME280;16267;48.194;11.546;2023-04-09T02:17:32;96564.03;;;6.06;83.78
29239;BME280;16267;48.194;11.546;2023-04-09T02:19:58;96572.03;;;6.06;83.57
29239;BME280;16267;48.194;11.546;2023-04-09T02:22:38;96570.50;;;6.05;83.02
29239;BME280;16267;48.194;11.546;2023-04-09T02:25:04;96572.03;;;6.06;82.95
29239;BME280;16267;48.194;11.546;2023-04-09T02:27:31;96559.47;;;6.07;83.25
29239;BME280;16267;48.194;11.546;2023-04-09T02:29:57;96555.25;;;6.06;83.09
29239;BME280;16267;48.194;11.546;2023-04-09T02:32:22;96562.50;;;6.05;83.47
29239;BME280;16267;48.194;11.546;2023-04-09T02:34:48;96560.59;;;6.06;83.49
29239;BME280;16267;48.194;11.546;2023-04-09T02:37:14;96561.34;;;6.06;83.10
29239;BME280;16267;48.194;11.546;2023-04-09T02:39:39;96562.50;;;6.05;83.67
29239;BME280;16267;48.194;11.546;2023-04-09T02:42:05;96564.41;;;6.05;84.18
29239;BME280;16267;48.194;11.546;2023-04-09T02:44:32;96565.88;;;6.02;83.87
29239;BME280;16267;48.194;11.546;2023-04-09T02:46:58;96568.53;;;6.02;83.77
29239;BME280;16267;48.194;11.546;2023-04-09T02:49:23;96560.53;;;6.02;83.38
29239;BME280;16267;48.194;11.546;2023-04-09T02:52:09;96566.97;;;6.01;83.35
29239;BME280;16267;48.194;11.546;2023-04-09T02:54:35;96553.66;;;6.01;84.22
29239;BME280;16267;48.194;11.546;2023-04-09T02:57:01;96555.94;;;5.99;84.75
29239;BME280;16267;48.194;11.546;2023-04-09T02:59:26;96554.38;;;5.98;85.37
29239;BME280;16267;48.194;11.546;2023-04-09T03:01:52;96544.09;;;5.96;85.14
29239;BME280;16267;48.194;11.546;2023-04-09T03:04:18;96544.44;;;5.95;84.77
29239;BME280;16267;48.194;11.546;2023-04-09T03:06:43;96541.75;;;5.95;84.38
29239;BME280;16267;48.194;11.546;2023-04-09T03:09:09;96542.53;;;5.95;84.17
29239;BME280;16267;48.194;11.546;2023-04-09T03:11:35;96540.22;;;5.94;84.24
29239;BME280;16267;48.194;11.546;2023-04-09T03:14:01;96534.16;;;5.93;85.05
29239;BME280;16267;48.194;11.546;2023-04-09T03:16:26;96532.94;;;5.91;85.22
29239;BME280;16267;48.194;11.546;2023-04-09T03:18:52;96537.47;;;5.90;85.28
29239;BME280;16267;48.194;11.546;2023-04-09T03:21:18;96540.13;;;5.90;85.24
29239;BME280;16267;48.194;11.546;2023-04-09T03:23:43;96548.50;;;5.89;84.79
29239;BME280;16267;48.194;11.546;2023-04-09T03:26:09;96543.94;;;5.89;83.98
29239;BME280;16267;48.194;11.546;2023-04-09T03:28:35;96546.59;;;5.89;84.61
29239;BME280;16267;48.194;11.546;2023-04-09T03:31:00;96541.63;;;5.88;86.06
29239;BME280;16267;48.194;11.546;2023-04-09T03:33:26;96551.50;;;5.87;85.62
29239;BME280;16267;48.194;11.546;2023-04-09T03:35:52;96558.72;;;5.87;85.08
29239;BME280;16267;48.194;11.546;2023-04-09T03:38:18;96551.09;;;5.85;84.64
29239;BME280;16267;48.194;11.546;2023-04-09T03:40:49;96557.53;;;5.84;84.57
29239;BME280;16267;48.194;11.546;2023-04-09T03:43:14;96557.53;;;5.84;84.19
29239;BME280;16267;48.194;11.546;2023-04-09T03:45:40;96565.53;;;5.84;83.52
29239;BME280;16267;48.194;11.546;2023-04-09T03:48:06;96557.16;;;5.82;83.96
29239;BME280;16267;48.194;11.546;2023-04-09T03:50:39;96564.34;;;5.81;83.67
29239;BME280;16267;48.194;11.546;2023-04-09T03:53:06;96564.72;;;5.80;83.66
29239;BME280;16267;48.194;11.546;2023-04-09T03:55:32;96565.81;;;5.79;83.39
29239;BME280;16267;48.194;11.546;2023-04-09T03:57:58;96564.28;;;5.78;83.20
29239;BME280;16267;48.194;11.546;2023-04-09T04:00:23;96563.88;;;5.76;83.05
29239;BME280;16267;48.194;11.546;2023-04-09T04:02:50;96573.75;;;5.75;83.14
29239;BME280;16267;48.194;11.546;2023-04-09T04:05:23;96573.31;;;5.73;82.39
29239;BME280;16267;48.194;11.546;2023-04-09T04:07:50;96571.78;;;5.72;82.80
29239;BME280;16267;48.194;11.546;2023-04-09T04:10:15;96580.13;;;5.71;82.48
29239;BME280;16267;48.194;11.546;2023-04-09T04:12:41;96582.03;;;5.70;82.54
29239;BME280;16267;48.194;11.546;2023-04-09T04:15:07;96571.75;;;5.69;82.32
29239;BME280;16267;48.194;11.546;2023-04-09T04:17:34;96576.66;;;5.67;82.68
29239;BME280;16267;48.194;11.546;2023-04-09T04:20:00;96573.97;;;5.67;82.51
29239;BME280;16267;48.194;11.546;2023-04-09T04:22:25;96579.31;;;5.67;82.44
29239;BME280;16267;48.194;11.546;2023-04-09T04:24:51;96577.00;;;5.65;82.68
29239;BME280;16267;48.194;11.546;2023-04-09T04:27:17;96567.84;;;5.63;82.85
29239;BME280;16267;48.194;11.546;2023-04-09T04:29:44;96576.50;;;5.59;82.74
29239;BME280;16267;48.194;11.546;2023-04-09T04:32:10;96582.53;;;5.56;83.42
29239;BME280;16267;48.194;11.546;2023-04-09T04:34:36;96581.34;;;5.54;83.33
29239;BME280;16267;48.194;11.546;2023-04-09T04:37:02;96587.03;;;5.52;83.29
29239;BME280;16267;48.194;11.546;2023-04-09T04:39:30;96580.16;;;5.51;83.65
29239;BME280;16267;48.194;11.546;2023-04-09T04:41:55;96577.09;;;5.49;83.43
29239;BME280;16267;48.194;11.546;2023-04-09T04:44:21;96577.00;;;5.46;83.85
29239;BME280;16267;48.194;11.546;2023-04-09T04:46:47;96573.59;;;5.45;84.28
29239;BME280;16267;48.194;11.546;2023-04-09T04:49:13;96575.84;;;5.43;83.77
29239;BME280;16267;48.194;11.546;2023-04-09T04:51:38;96571.63;;;5.42;83.76
29239;BME280;16267;48.194;11.546;2023-04-09T04:54:04;96573.47;;;5.38;84.13
29239;BME280;16267;48.194;11.546;2023-04-09T04:56:30;96568.13;;;5.38;84.70
29239;BME280;16267;48.194;11.546;2023-04-09T04:58:56;96566.25;;;5.39;84.11
29239;BME280;16267;48.194;11.546;2023-04-09T05:01:21;96565.09;;;5.40;84.03
29239;BME280;16267;48.194;11.546;2023-04-09T05:03:47;96578.06;;;5.41;84.21
29239;BME280;16267;48.194;11.546;2023-04-09T05:06:13;96572.38;;;5.43;84.02
29239;BME280;16267;48.194;11.546;2023-04-09T05:08:38;96575.47;;;5.45;83.66
29239;BME280;16267;48.194;11.546;2023-04-09T05:11:04;96586.13;;;5.45;83.07
29239;BME280;16267;48.194;11.546;2023-04-09T05:13:30;96597.53;;;5.45;83.34
29239;BME280;16267;48.194;11.546;2023-04-09T05:15:55;96597.53;;;5.45;82.88
29239;BME280;16267;48.194;11.546;2023-04-09T05:18:24;96599.44;;;5.45;82.68
29239;BME280;16267;48.194;11.546;2023-04-09T05:20:50;96600.97;;;5.46;82.59
29239;BME280;16267;48.194;11.546;2023-04-09T05:23:16;96606.28;;;5.46;82.70
29239;BME280;16267;48.194;11.546;2023-04-09T05:25:41;96608.19;;;5.45;83.21
29239;BME280;16267;48.194;11.546;2023-04-09T05:28:08;96620.41;;;5.46;83.37
29239;BME280;16267;48.194;11.546;2023-04-09T05:30:35;96620.41;;;5.46;83.06
29239;BME280;16267;48.194;11.546;2023-04-09T05:33:01;96617.75;;;5.46;82.87
29239;BME280;16267;48.194;11.546;2023-04-09T05:35:27;96623.47;;;5.48;82.72
29239;BME280;16267;48.194;11.546;2023-04-09T05:37:52;96620.81;;;5.48;82.46
29239;BME280;16267;48.194;11.546;2023-04-09T05:40:18;96616.66;;;5.51;82.25
29239;BME280;16267;48.194;11.546;2023-04-09T05:42:44;96619.00;;;5.52;81.88
29239;BME280;16267;48.194;11.546;2023-04-09T05:45:10;96617.16;;;5.56;82.06
29239;BME280;16267;48.194;11.546;2023-04-09T05:47:36;96620.31;;;5.62;82.12
29239;BME280;16267;48.194;11.546;2023-04-09T05:50:02;96615.81;;;5.66;81.95
29239;BME280;16267;48.194;11.546;2023-04-09T05:52:27;96613.28;;;5.73;81.98
29239;BME280;16267;48.194;11.546;2023-04-09T05:54:53;96603.91;;;5.79;81.87
29239;BME280;16267;48.194;11.546;2023-04-09T05:57:21;96606.25;;;5.85;82.53
29239;BME280;16267;48.194;11.546;2023-04-09T05:59:47;96606.34;;;5.88;83.64
29239;BME280;16267;48.194;11.546;2023-04-09T06:02:13;96602.97;;;5.91;83.39
29239;BME280;16267;48.194;11.546;2023-04-09T06:04:38;96598.75;;;5.90;83.43
29239;BME280;16267;48.194;11.546;2023-04-09T06:07:04;96594.28;;;5.94;84.46
29239;BME280;16267;48.194;11.546;2023-04-09T06:09:30;96598.13;;;5.97;84.82
29239;BME280;16267;48.194;11.546;2023-04-09T06:11:55;96595.53;;;6.00;84.16
29239;BME280;16267;48.194;11.546;2023-04-09T06:14:22;96604.00;;;6.06;84.84
29239;BME280;16267;48.194;11.546;2023-04-09T06:16:47;96612.84;;;6.10;84.59
29239;BME280;16267;48.194;11.546;2023-04-09T06:19:15;96614.84;;;6.17;84.84
29239;BME280;16267;48.194;11.546;2023-04-09T06:21:41;96615.38;;;6.26;84.93
29239;BME280;16267;48.194;11.546;2023-04-09T06:24:44;96617.16;;;6.41;83.88
29239;BME280;16267;48.194;11.546;2023-04-09T06:27:10;96618.91;;;6.57;84.23
29239;BME280;16267;48.194;11.546;2023-04-09T06:29:35;96623.69;;;6.70;81.33
29239;BME280;16267;48.194;11.546;2023-04-09T06:32:02;96621.25;;;6.85;80.92
29239;BME280;16267;48.194;11.546;2023-04-09T06:34:28;96622.56;;;6.98;79.01
29239;BME280;16267;48.194;11.546;2023-04-09T06:36:54;96622.03;;;7.15;79.86
29239;BME280;16267;48.194;11.546;2023-04-09T06:39:20;96621.81;;;7.28;78.59
29239;BME280;16267;48.194;11.546;2023-04-09T06:41:46;96626.19;;;7.43;77.62
29239;BME280;16267;48.194;11.546;2023-04-09T06:44:26;96623.25;;;7.52;75.08
29239;BME280;16267;48.194;11.546;2023-04-09T06:46:52;96620.69;;;7.63;75.26
29239;BME280;16267;48.194;11.546;2023-04-09T06:49:23;96618.16;;;7.73;74.37
29239;BME280;16267;48.194;11.546;2023-04-09T06:51:58;96617.13;;;7.85;74.47
29239;BME280;16267;48.194;11.546;2023-04-09T06:54:24;96613.00;;;7.95;74.46
29239;BME280;16267;48.194;11.546;2023-04-09T06:56:49;96616.56;;;8.06;73.70
29239;BME280;16267;48.194;11.546;2023-04-09T06:59:18;96628.84;;;8.14;71.51
29239;BME280;16267;48.194;11.546;2023-04-09T07:01:44;96622.81;;;8.21;70.57
29239;BME280;16267;48.194;11.546;2023-04-09T07:04:10;96618.31;;;8.29;70.44
29239;BME280;16267;48.194;11.546;2023-04-09T07:06:35;96632.09;;;8.34;69.66
29239;BME280;16267;48.194;11.546;2023-04-09T07:09:01;96636.31;;;8.35;68.42
29239;BME280;16267;48.194;11.546;2023-04-09T07:11:27;96631.09;;;8.46;69.77
29239;BME280;16267;48.194;11.546;2023-04-09T07:13:53;96630.34;;;8.49;68.13
29239;BME280;16267;48.194;11.546;2023-04-09T07:16:21;96633.78;;;8.53;66.33
29239;BME280;16267;48.194;11.546;2023-04-09T07:18:46;96628.91;;;8.62;68.22
29239;BME280;16267;48.194;11.546;2023-04-09T07:21:12;96635.53;;;8.35;62.84
29239;BME280;16267;48.194;11.546;2023-04-09T07:23:38;96636.13;;;8.55;65.58
29239;BME280;16267;48.194;11.546;2023-04-09T07:26:04;96634.72;;;8.71;66.78
29239;BME280;16267;48.194;11.546;2023-04-09T07:28:31;96637.88;;;8.84;65.95
29239;BME280;16267;48.194;11.546;2023-04-09T07:30:57;96637.38;;;8.71;64.65
29239;BME280;16267;48.194;11.546;2023-04-09T07:33:23;96632.88;;;8.86;65.32
29239;BME280;16267;48.194;11.546;2023-04-09T07:35:49;96632.19;;;8.97;64.88
29239;BME280;16267;48.194;11.546;2023-04-09T07:38:14;96641.06;;;9.04;63.76
29239;BME280;16267;48.194;11.546;2023-04-09T07:40:40;96632.69;;;9.13;62.74
29239;BME280;16267;48.194;11.546;2023-04-09T07:43:06;96633.56;;;9.31;64.80
29239;BME280;16267;48.194;11.546;2023-04-09T07:45:42;96625.56;;;9.46;63.37
29239;BME280;16267;48.194;11.546;2023-04-09T07:48:09;96629.06;;;9.60;63.20
29239;BME280;16267;48.194;11.546;2023-04-09T07:50:34;96628.34;;;9.74;62.20
29239;BME280;16267;48.194;11.546;2023-04-09T07:53:00;96629.91;;;9.86;62.08
29239;BME280;16267;48.194;11.546;2023-04-09T07:55:26;96628.03;;;9.87;59.13
29239;BME280;16267;48.194;11.546;2023-04-09T07:57:52;96617.63;;;9.71;56.49
29239;BME280;16267;48.194;11.546;2023-04-09T08:00:19;96637.50;;;9.63;56.81
29239;BME280;16267;48.194;11.546;2023-04-09T08:02:45;96635.63;;;9.74;57.71
29239;BME280;16267;48.194;11.546;2023-04-09T08:05:11;96630.69;;;9.94;58.65
29239;BME280;16267;48.194;11.546;2023-04-09T08:07:44;96633.81;;;10.10;57.28
29239;BME280;16267;48.194;11.546;2023-04-09T08:10:10;96625.38;;;10.22;57.92
29239;BME280;16267;48.194;11.546;2023-04-09T08:12:39;96639.63;;;10.37;57.83
29239;BME280;16267;48.194;11.546;2023-04-09T08:15:06;96630.41;;;10.35;55.16
29239;BME280;16267;48.194;11.546;2023-04-09T08:17:32;96627.31;;;10.22;54.11
29239;BME280;16267;48.194;11.546;2023-04-09T08:20:04;96643.78;;;10.20;53.18
29239;BME280;16267;48.194;11.546;2023-04-09T08:22:30;96636.94;;;10.34;53.91
29239;BME280;16267;48.194;11.546;2023-04-09T08:24:56;96638.09;;;10.40;53.71
29239;BME280;16267;48.194;11.546;2023-04-09T08:27:23;96648.84;;;10.54;55.51
29239;BME280;16267;48.194;11.546;2023-04-09T08:29:49;96647.28;;;10.75;56.38
29239;BME280;16267;48.194;11.546;2023-04-09T08:32:20;96640.00;;;10.75;55.03
29239;BME280;16267;48.194;11.546;2023-04-09T08:34:46;96640.00;;;10.79;55.15
29239;BME280;16267;48.194;11.546;2023-04-09T08:37:12;96640.00;;;10.89;53.55
29239;BME280;16267;48.194;11.546;2023-04-09T08:39:38;96635.75;;;11.06;54.15
29239;BME280;16267;48.194;11.546;2023-04-09T08:42:05;96637.31;;;11.00;51.28
29239;BME280;16267;48.194;11.546;2023-04-09T08:44:32;96641.09;;;11.17;53.90
29239;BME280;16267;48.194;11.546;2023-04-09T08:46:59;96647.59;;;11.30;52.73
29239;BME280;16267;48.194;11.546;2023-04-09T08:49:24;96643.38;;;11.26;52.54
29239;BME280;16267;48.194;11.546;2023-04-09T08:51:50;96653.75;;;11.16;52.33
29239;BME280;16267;48.194;11.546;2023-04-09T08:54:17;96656.06;;;11.22;52.10
29239;BME280;16267;48.194;11.546;2023-04-09T08:56:46;96648.34;;;11.34;51.77
29239;BME280;16267;48.194;11.546;2023-04-09T08:59:16;96654.47;;;11.42;50.89
29239;BME280;16267;48.194;11.546;2023-04-09T09:01:45;96656.72;;;11.61;52.28
29239;BME280;16267;48.194;11.546;2023-04-09T09:04:14;96648.22;;;11.70;49.09
29239;BME280;16267;48.194;11.546;2023-04-09T09:06:40;96650.59;;;11.54;50.09
29239;BME280;16267;48.194;11.546;2023-04-09T09:09:14;96649.75;;;11.71;51.19
29239;BME280;16267;48.194;11.546;2023-04-09T09:11:48;96653.53;;;11.88;50.52
29239;BME280;16267;48.194;11.546;2023-04-09T09:14:18;96645.78;;;12.04;50.46
29239;BME280;16267;48.194;11.546;2023-04-09T09:22:03;96651.31;;;12.42;50.60
29239;BME280;16267;48.194;11.546;2023-04-09T09:24:31;96640.09;;;12.51;49.41
29239;BME280;16267;48.194;11.546;2023-04-09T09:26:59;96643.22;;;12.46;49.03
29239;BME280;16267;48.194;11.546;2023-04-09T09:29:25;96650.56;;;12.38;48.34
29239;BME280;16267;48.194;11.546;2023-04-09T09:31:54;96652.53;;;12.34;47.52
29239;BME280;16267;48.194;11.546;2023-04-09T09:34:22;96645.16;;;12.42;47.71
29239;BME280;16267;48.194;11.546;2023-04-09T09:36:49;96654.13;;;12.21;47.32
29239;BME280;16267;48.194;11.546;2023-04-09T09:39:16;96645.63;;;12.30;48.38
29239;BME280;16267;48.194;11.546;2023-04-09T09:41:46;96647.09;;;12.38;48.18
29239;BME280;16267;48.194;11.546;2023-04-09T09:44:33;96647.53;;;12.36;47.16
29239;BME280;16267;48.194;11.546;2023-04-09T09:47:02;96645.19;;;12.38;47.04
29239;BME280;16267;48.194;11.546;2023-04-09T09:49:30;96645.59;;;12.37;45.45
29239;BME280;16267;48.194;11.546;2023-04-09T09:51:56;96644.03;;;12.36;45.80
29239;BME280;16267;48.194;11.546;2023-04-09T09:54:24;96646.66;;;12.50;48.22
29239;BME280;16267;48.194;11.546;2023-04-09T09:56:54;96651.69;;;12.41;45.63
29239;BME280;16267;48.194;11.546;2023-04-09T09:59:29;96655.63;;;12.29;46.06
29239;BME280;16267;48.194;11.546;2023-04-09T10:02:03;96658.66;;;12.35;46.91
29239;BME280;16267;48.194;11.546;2023-04-09T10:04:33;96651.47;;;12.17;47.00
29239;BME280;16267;48.194;11.546;2023-04-09T10:07:06;96651.13;;;12.12;46.58
29239;BME280;16267;48.194;11.546;2023-04-09T10:09:37;96655.38;;;12.09;47.73
29239;BME280;16267;48.194;11.546;2023-04-09T10:12:06;96649.16;;;12.16;46.91
29239;BME280;16267;48.194;11.546;2023-04-09T10:14:39;96651.06;;;12.19;48.23
29239;BME280;16267;48.194;11.546;2023-04-09T10:17:05;96647.69;;;12.08;46.66
29239;BME280;16267;48.194;11.546;2023-04-09T10:19:39;96650.72;;;12.17;46.73
29239;BME280;16267;48.194;11.546;2023-04-09T10:22:11;96650.22;;;12.36;48.73
29239;BME280;16267;48.194;11.546;2023-04-09T10:24:47;96653.19;;;12.49;48.79
29239;BME280;16267;48.194;11.546;2023-04-09T10:27:15;96645.34;;;12.13;46.37
29239;BME280;16267;48.194;11.546;2023-04-09T10:29:50;96648.22;;;12.44;47.76
29239;BME280;16267;48.194;11.546;2023-04-09T10:32:25;96645.06;;;12.56;47.33
29239;BME280;16267;48.194;11.546;2023-04-09T10:34:57;96643.63;;;12.41;46.04
29239;BME280;16267;48.194;11.546;2023-04-09T10:37:26;96642.91;;;12.33;47.08
29239;BME280;16267;48.194;11.546;2023-04-09T10:39:53;96641.41;;;12.28;46.98
29239;BME280;16267;48.194;11.546;2023-04-09T10:42:23;96645.28;;;12.24;47.70
29239;BME280;16267;48.194;11.546;2023-04-09T10:45:13;96645.31;;;12.20;46.50
29239;BME280;16267;48.194;11.546;2023-04-09T10:47:42;96649.94;;;12.20;47.12
29239;BME280;16267;48.194;11.546;2023-04-09T10:50:24;96646.41;;;12.26;47.85
29239;BME280;16267;48.194;11.546;2023-04-09T10:53:03;96637.59;;;12.26;47.24
29239;BME280;16267;48.194;11.546;2023-04-09T10:55:34;96644.03;;;12.36;47.17
29239;BME280;16267;48.194;11.546;2023-04-09T10:58:11;96647.47;;;12.40;47.75
29239;BME280;16267;48.194;11.546;2023-04-09T11:00:39;96640.56;;;12.42;48.39
29239;BME280;16267;48.194;11.546;2023-04-09T11:03:25;96645.00;;;12.63;48.68
29239;BME280;16267;48.194;11.546;2023-04-09T11:06:03;96645.63;;;12.82;48.81
29239;BME280;16267;48.194;11.546;2023-04-09T11:08:43;96633.91;;;12.99;48.65
29239;BME280;16267;48.194;11.546;2023-04-09T11:11:09;96628.50;;;13.03;46.50
29239;BME280;16267;48.194;11.546;2023-04-09T11:13:41;96628.03;;;13.11;47.06
29239;BME280;16267;48.194;11.546;2023-04-09T11:16:07;96637.53;;;13.23;46.68
29239;BME280;16267;48.194;11.546;2023-04-09T11:18:33;96633.47;;;13.04;45.45
29239;BME280;16267;48.194;11.546;2023-04-09T11:21:02;96631.81;;;13.17;45.82
29239;BME280;16267;48.194;11.546;2023-04-09T11:23:29;96627.13;;;13.25;45.22
29239;BME280;16267;48.194;11.546;2023-04-09T11:25:56;96627.50;;;13.27;45.42
29239;BME280;16267;48.194;11.546;2023-04-09T11:28:22;96625.22;;;13.22;45.78
29239;BME280;16267;48.194;11.546;2023-04-09T11:30:52;96626.75;;;13.23;45.69
29239;BME280;16267;48.194;11.546;2023-04-09T11:33:18;96631.00;;;13.21;45.56
29239;BME280;16267;48.194;11.546;2023-04-09T11:35:44;96635.44;;;13.00;44.81
29239;BME280;16267;48.194;11.546;2023-04-09T11:38:10;96636.69;;;12.92;43.67
29239;BME280;16267;48.194;11.546;2023-04-09T11:40:40;96637.97;;;12.77;43.56
29239;BME280;16267;48.194;11.546;2023-04-09T11:43:12;96638.38;;;12.75;44.35
29239;BME280;16267;48.194;11.546;2023-04-09T11:45:40;96640.66;;;12.77;44.82
29239;BME280;16267;48.194;11.546;2023-04-09T11:48:06;96649.97;;;12.68;44.79
29239;BME280;16267;48.194;11.546;2023-04-09T11:50:32;96638.47;;;12.61;45.79
29239;BME280;16267;48.194;11.546;2023-04-09T11:52:58;96646.13;;;12.66;46.55
29239;BME280;16267;48.194;11.546;2023-04-09T11:55:26;96642.63;;;12.69;47.03
29239;BME280;16267;48.194;11.546;2023-04-09T11:57:59;96651.94;;;12.61;46.30
29239;BME280;16267;48.194;11.546;2023-04-09T12:00:28;96649.25;;;12.61;46.40
29239;BME280;16267;48.194;11.546;2023-04-09T12:03:04;96653.19;;;12.53;45.69
29239;BME280;16267;48.194;11.546;2023-04-09T12:05:32;96653.22;;;12.45;44.91
29239;BME280;16267;48.194;11.546;2023-04-09T12:08:04;96647.47;;;12.40;45.49
29239;BME280;16267;48.194;11.546;2023-04-09T12:10:35;96648.66;;;12.35;46.25
29239;BME280;16267;48.194;11.546;2023-04-09T12:13:06;96647.19;;;12.31;46.25
29239;BME280;16267;48.194;11.546;2023-04-09T12:15:38;96657.94;;;12.27;46.31
29239;BME280;16267;48.194;11.546;2023-04-09T12:18:12;96649.84;;;12.34;47.10
29239;BME280;16267;48.194;11.546;2023-04-09T12:20:40;96653.66;;;12.33;46.59
29239;BME280;16267;48.194;11.546;2023-04-09T12:23:11;96637.41;;;12.51;48.10
29239;BME280;16267;48.194;11.546;2023-04-09T12:25:42;96643.84;;;12.64;47.61
29239;BME280;16267;48.194;11.546;2023-04-09T12:28:11;96648.41;;;12.71;47.14
29239;BME280;16267;48.194;11.546;2023-04-09T12:30:39;96648.00;;;12.72;46.30
29239;BME280;16267;48.194;11.546;2023-04-09T12:33:05;96646.13;;;12.69;46.73
29239;BME280;16267;48.194;11.546;2023-04-09T12:35:31;96645.28;;;12.76;46.50
29239;BME280;16267;48.194;11.546;2023-04-09T12:37:57;96634.47;;;12.83;45.73
29239;BME280;16267;48.194;11.546;2023-04-09T12:40:26;96633.22;;;12.91;46.13
29239;BME280;16267;48.194;11.546;2023-04-09T12:42:52;96639.34;;;12.95;46.26
29239;BME280;16267;48.194;11.546;2023-04-09T12:45:19;96635.44;;;13.00;46.38
29239;BME280;16267;48.194;11.546;2023-04-09T12:47:45;96636.97;;;13.01;45.69
29239;BME280;16267;48.194;11.546;2023-04-09T12:50:13;96638.94;;;12.97;45.35
29239;BME280;16267;48.194;11.546;2023-04-09T12:52:39;96637.03;;;12.94;45.67
29239;BME280;16267;48.194;11.546;2023-04-09T12:55:06;96637.16;;;12.83;45.61
29239;BME280;16267;48.194;11.546;2023-04-09T12:57:32;96636.91;;;12.63;45.80
29239;BME280;16267;48.194;11.546;2023-04-09T12:59:59;96626.59;;;12.55;46.39
29239;BME280;16267;48.194;11.546;2023-04-09T13:02:25;96634.72;;;12.51;46.80
29239;BME280;16267;48.194;11.546;2023-04-09T13:04:51;96634.34;;;12.49;46.97
29239;BME280;16267;48.194;11.546;2023-04-09T13:07:17;96627.00;;;12.49;47.00
29239;BME280;16267;48.194;11.546;2023-04-09T13:09:47;96632.53;;;12.32;47.31
29239;BME280;16267;48.194;11.546;2023-04-09T13:12:17;96626.41;;;12.31;47.31